Terminal Aerodrome Forecast
Issued by NWS Corpus Christi, TX

Home | Current Version | Previous Version | Text Only | Print | Product List | Glossary On
Versions: 1 2 3 4 5 6 7 8 9 10 11 12 13 14
000
FTUS44 KCRP 301120
TAFCRP
TAF
KCRP 301120Z 3012/3112 15007KT P6SM FEW015 SCT250
     FM301400 17012KT P6SM SCT020 SCT035
     FM301800 14015KT P6SM SCT040
     FM310200 15007KT P6SM FEW020=

USA.gov is the U.S. government's official web portal to all federal, state and local government web resources and services.